sensor_id;sensor_type;location;lat;lon;timestamp;temperature;humidity
5621;DHT22;2832;50.864;12.186;2022-11-15T00:01:09;12.50;99.90
5621;DHT22;2832;50.864;12.186;2022-11-15T00:03:41;12.60;99.90
5621;DHT22;2832;50.864;12.186;2022-11-15T00:06:08;12.50;99.90
5621;DHT22;2832;50.864;12.186;2022-11-15T00:08:36;12.50;99.90
5621;DHT22;2832;50.864;12.186;2022-11-15T00:11:04;12.50;99.90
5621;DHT22;2832;50.864;12.186;2022-11-15T00:13:32;12.40;99.90
5621;DHT22;2832;50.864;12.186;2022-11-15T00:16:00;12.40;99.90
5621;DHT22;2832;50.864;12.186;2022-11-15T00:18:31;12.40;99.90
5621;DHT22;2832;50.864;12.186;2022-11-15T00:21:04;12.50;99.90
5621;DHT22;2832;50.864;12.186;2022-11-15T00:23:33;12.50;99.90
5621;DHT22;2832;50.864;12.186;2022-11-15T00:26:01;12.50;99.90
5621;DHT22;2832;50.864;12.186;2022-11-15T00:28:29;12.50;99.90
5621;DHT22;2832;50.864;12.186;2022-11-15T00:31:00;12.50;99.90
5621;DHT22;2832;50.864;12.186;2022-11-15T00:33:30;12.40;99.90
5621;DHT22;2832;50.864;12.186;2022-11-15T00:36:02;12.40;99.90
5621;DHT22;2832;50.864;12.186;2022-11-15T00:38:31;12.50;99.90
5621;DHT22;2832;50.864;12.186;2022-11-15T00:41:01;12.50;99.90
5621;DHT22;2832;50.864;12.186;2022-11-15T00:43:30;12.50;99.90
5621;DHT22;2832;50.864;12.186;2022-11-15T00:46:02;12.50;99.90
5621;DHT22;2832;50.864;12.186;2022-11-15T00:48:32;12.50;99.90
5621;DHT22;2832;50.864;12.186;2022-11-15T00:51:00;12.50;99.90
5621;DHT22;2832;50.864;12.186;2022-11-15T00:53:28;12.50;99.90
5621;DHT22;2832;50.864;12.186;2022-11-15T00:55:55;12.40;99.90
5621;DHT22;2832;50.864;12.186;2022-11-15T00:58:23;12.40;99.90
5621;DHT22;2832;50.864;12.186;2022-11-15T01:00:51;12.40;99.90
5621;DHT22;2832;50.864;12.186;2022-11-15T01:03:20;12.40;99.90
5621;DHT22;2832;50.864;12.186;2022-11-15T01:05:50;12.40;99.90
5621;DHT22;2832;50.864;12.186;2022-11-15T01:08:17;12.40;99.90
5621;DHT22;2832;50.864;12.186;2022-11-15T01:10:45;12.40;99.90
5621;DHT22;2832;50.864;12.186;2022-11-15T01:13:13;12.40;99.90
5621;DHT22;2832;50.864;12.186;2022-11-15T01:15:41;12.40;99.90
5621;DHT22;2832;50.864;12.186;2022-11-15T01:18:08;12.30;99.90
5621;DHT22;2832;50.864;12.186;2022-11-15T01:20:40;12.30;99.90
5621;DHT22;2832;50.864;12.186;2022-11-15T01:23:10;12.30;99.90
5621;DHT22;2832;50.864;12.186;2022-11-15T01:25:37;12.20;99.90
5621;DHT22;2832;50.864;12.186;2022-11-15T01:28:07;12.20;99.90
5621;DHT22;2832;50.864;12.186;2022-11-15T01:30:36;12.20;99.90
5621;DHT22;2832;50.864;12.186;2022-11-15T01:33:03;12.30;99.90
5621;DHT22;2832;50.864;12.186;2022-11-15T01:35:31;12.30;99.90
5621;DHT22;2832;50.864;12.186;2022-11-15T01:37:59;12.30;99.90
5621;DHT22;2832;50.864;12.186;2022-11-15T01:40:28;12.30;99.90
5621;DHT22;2832;50.864;12.186;2022-11-15T01:42:56;12.40;99.90
5621;DHT22;2832;50.864;12.186;2022-11-15T01:45:23;12.40;99.90
5621;DHT22;2832;50.864;12.186;2022-11-15T01:47:52;12.40;99.90
5621;DHT22;2832;50.864;12.186;2022-11-15T01:50:24;12.40;99.90
5621;DHT22;2832;50.864;12.186;2022-11-15T01:52:54;12.40;99.90
5621;DHT22;2832;50.864;12.186;2022-11-15T01:55:25;12.40;99.90
5621;DHT22;2832;50.864;12.186;2022-11-15T01:57:57;12.40;99.90
5621;DHT22;2832;50.864;12.186;2022-11-15T02:00:27;12.40;99.90
5621;DHT22;2832;50.864;12.186;2022-11-15T02:02:55;12.30;99.90
5621;DHT22;2832;50.864;12.186;2022-11-15T02:05:23;12.30;99.90
5621;DHT22;2832;50.864;12.186;2022-11-15T02:07:51;12.20;99.90
5621;DHT22;2832;50.864;12.186;2022-11-15T02:10:20;12.20;99.90
5621;DHT22;2832;50.864;12.186;2022-11-15T02:12:49;12.30;99.90
5621;DHT22;2832;50.864;12.186;2022-11-15T02:15:20;12.30;99.90
5621;DHT22;2832;50.864;12.186;2022-11-15T02:18:08;12.30;99.90
5621;DHT22;2832;50.864;12.186;2022-11-15T02:20:49;12.30;99.90
5621;DHT22;2832;50.864;12.186;2022-11-15T02:29:38;12.30;99.90
5621;DHT22;2832;50.864;12.186;2022-11-15T02:32:18;12.30;99.90
5621;DHT22;2832;50.864;12.186;2022-11-15T02:34:53;12.20;99.90
5621;DHT22;2832;50.864;12.186;2022-11-15T02:37:33;12.20;99.90
5621;DHT22;2832;50.864;12.186;2022-11-15T02:40:07;12.30;99.90
5621;DHT22;2832;50.864;12.186;2022-11-15T02:42:44;12.20;99.90
5621;DHT22;2832;50.864;12.186;2022-11-15T02:45:36;12.20;99.90
5621;DHT22;2832;50.864;12.186;2022-11-15T02:48:10;12.10;99.90
5621;DHT22;2832;50.864;12.186;2022-11-15T02:50:38;12.10;99.90
5621;DHT22;2832;50.864;12.186;2022-11-15T02:53:07;12.10;99.90
5621;DHT22;2832;50.864;12.186;2022-11-15T02:55:37;12.10;99.90
5621;DHT22;2832;50.864;12.186;2022-11-15T02:58:31;12.10;99.90
5621;DHT22;2832;50.864;12.186;2022-11-15T03:01:08;12.20;99.90
5621;DHT22;2832;50.864;12.186;2022-11-15T03:03:48;12.10;99.90
5621;DHT22;2832;50.864;12.186;2022-11-15T03:06:28;12.10;99.90
5621;DHT22;2832;50.864;12.186;2022-11-15T03:09:05;12.10;99.90
5621;DHT22;2832;50.864;12.186;2022-11-15T03:11:38;12.10;99.90
5621;DHT22;2832;50.864;12.186;2022-11-15T03:14:16;12.10;99.90
5621;DHT22;2832;50.864;12.186;2022-11-15T03:16:51;12.10;99.90
5621;DHT22;2832;50.864;12.186;2022-11-15T03:19:31;12.10;99.90
5621;DHT22;2832;50.864;12.186;2022-11-15T03:22:02;12.10;99.90
5621;DHT22;2832;50.864;12.186;2022-11-15T03:24:34;12.10;99.90
5621;DHT22;2832;50.864;12.186;2022-11-15T03:27:04;12.10;99.90
5621;DHT22;2832;50.864;12.186;2022-11-15T03:29:36;12.10;99.90
5621;DHT22;2832;50.864;12.186;2022-11-15T03:32:09;12.10;99.90
5621;DHT22;2832;50.864;12.186;2022-11-15T03:34:52;12.20;99.90
5621;DHT22;2832;50.864;12.186;2022-11-15T03:37:24;12.10;99.90
5621;DHT22;2832;50.864;12.186;2022-11-15T03:39:52;12.10;99.90
5621;DHT22;2832;50.864;12.186;2022-11-15T03:42:24;12.10;99.90
5621;DHT22;2832;50.864;12.186;2022-11-15T03:45:00;12.10;99.90
5621;DHT22;2832;50.864;12.186;2022-11-15T03:47:36;12.10;99.90
5621;DHT22;2832;50.864;12.186;2022-11-15T03:50:08;12.00;99.90
5621;DHT22;2832;50.864;12.186;2022-11-15T03:52:39;12.00;99.90
5621;DHT22;2832;50.864;12.186;2022-11-15T03:55:12;12.00;99.90
5621;DHT22;2832;50.864;12.186;2022-11-15T03:57:40;12.10;99.90
5621;DHT22;2832;50.864;12.186;2022-11-15T04:00:20;12.10;99.90
5621;DHT22;2832;50.864;12.186;2022-11-15T04:02:47;12.10;99.90
5621;DHT22;2832;50.864;12.186;2022-11-15T04:05:17;12.10;99.90
5621;DHT22;2832;50.864;12.186;2022-11-15T04:07:45;12.10;99.90
5621;DHT22;2832;50.864;12.186;2022-11-15T04:10:13;12.10;99.90
5621;DHT22;2832;50.864;12.186;2022-11-15T04:12:43;12.10;99.90
5621;DHT22;2832;50.864;12.186;2022-11-15T04:15:14;12.10;99.90
5621;DHT22;2832;50.864;12.186;2022-11-15T04:17:43;12.10;99.90
5621;DHT22;2832;50.864;12.186;2022-11-15T04:20:17;12.10;99.90
5621;DHT22;2832;50.864;12.186;2022-11-15T04:23:06;12.00;99.90
5621;DHT22;2832;50.864;12.186;2022-11-15T04:25:53;12.10;99.90
5621;DHT22;2832;50.864;12.186;2022-11-15T04:28:21;12.10;99.90
5621;DHT22;2832;50.864;12.186;2022-11-15T04:30:49;12.10;99.90
5621;DHT22;2832;50.864;12.186;2022-11-15T04:33:17;12.00;99.90
5621;DHT22;2832;50.864;12.186;2022-11-15T04:35:45;12.10;99.90
5621;DHT22;2832;50.864;12.186;2022-11-15T04:38:35;12.00;99.90
5621;DHT22;2832;50.864;12.186;2022-11-15T04:41:03;12.00;99.90
5621;DHT22;2832;50.864;12.186;2022-11-15T04:43:30;12.00;99.90
5621;DHT22;2832;50.864;12.186;2022-11-15T04:45:58;12.00;99.90
5621;DHT22;2832;50.864;12.186;2022-11-15T04:48:26;12.00;99.90
5621;DHT22;2832;50.864;12.186;2022-11-15T04:50:53;12.10;99.90
5621;DHT22;2832;50.864;12.186;2022-11-15T04:53:21;12.00;99.90
5621;DHT22;2832;50.864;12.186;2022-11-15T04:55:50;12.00;99.90
5621;DHT22;2832;50.864;12.186;2022-11-15T04:58:18;12.00;99.90
5621;DHT22;2832;50.864;12.186;2022-11-15T05:00:46;11.90;99.90
5621;DHT22;2832;50.864;12.186;2022-11-15T05:03:13;11.90;99.90
5621;DHT22;2832;50.864;12.186;2022-11-15T05:05:59;12.00;99.90
5621;DHT22;2832;50.864;12.186;2022-11-15T05:08:27;11.90;99.90
5621;DHT22;2832;50.864;12.186;2022-11-15T05:10:56;11.80;99.90
5621;DHT22;2832;50.864;12.186;2022-11-15T05:13:24;11.90;99.90
5621;DHT22;2832;50.864;12.186;2022-11-15T05:15:52;11.90;99.90
5621;DHT22;2832;50.864;12.186;2022-11-15T05:18:19;12.00;99.90
5621;DHT22;2832;50.864;12.186;2022-11-15T05:20:47;11.90;99.90
5621;DHT22;2832;50.864;12.186;2022-11-15T05:23:15;11.90;99.90
5621;DHT22;2832;50.864;12.186;2022-11-15T05:25:42;11.90;99.90
5621;DHT22;2832;50.864;12.186;2022-11-15T05:28:12;12.00;99.90
5621;DHT22;2832;50.864;12.186;2022-11-15T05:30:40;11.90;99.90
5621;DHT22;2832;50.864;12.186;2022-11-15T05:33:08;11.90;99.90
5621;DHT22;2832;50.864;12.186;2022-11-15T05:35:39;11.90;99.90
5621;DHT22;2832;50.864;12.186;2022-11-15T05:38:09;11.90;99.90
5621;DHT22;2832;50.864;12.186;2022-11-15T05:40:36;12.00;99.90
5621;DHT22;2832;50.864;12.186;2022-11-15T05:43:05;11.90;99.90
5621;DHT22;2832;50.864;12.186;2022-11-15T05:45:35;11.90;99.90
5621;DHT22;2832;50.864;12.186;2022-11-15T05:48:06;11.90;99.90
5621;DHT22;2832;50.864;12.186;2022-11-15T05:50:36;11.90;99.90
5621;DHT22;2832;50.864;12.186;2022-11-15T05:53:06;11.80;99.90
5621;DHT22;2832;50.864;12.186;2022-11-15T05:55:34;11.70;99.90
5621;DHT22;2832;50.864;12.186;2022-11-15T05:58:01;11.70;99.90
5621;DHT22;2832;50.864;12.186;2022-11-15T06:00:29;11.70;99.90
5621;DHT22;2832;50.864;12.186;2022-11-15T06:02:58;11.70;99.90
5621;DHT22;2832;50.864;12.186;2022-11-15T06:05:26;11.80;99.90
5621;DHT22;2832;50.864;12.186;2022-11-15T06:07:57;11.80;99.90
5621;DHT22;2832;50.864;12.186;2022-11-15T06:10:25;11.70;99.90
5621;DHT22;2832;50.864;12.186;2022-11-15T06:13:00;11.70;99.90
5621;DHT22;2832;50.864;12.186;2022-11-15T06:15:28;11.70;99.90
5621;DHT22;2832;50.864;12.186;2022-11-15T06:17:58;11.70;99.90
5621;DHT22;2832;50.864;12.186;2022-11-15T06:20:26;11.70;99.90
5621;DHT22;2832;50.864;12.186;2022-11-15T06:22:57;11.70;99.90
5621;DHT22;2832;50.864;12.186;2022-11-15T06:25:25;11.70;99.90
5621;DHT22;2832;50.864;12.186;2022-11-15T06:27:53;11.70;99.90
5621;DHT22;2832;50.864;12.186;2022-11-15T06:30:23;11.70;99.90
5621;DHT22;2832;50.864;12.186;2022-11-15T06:32:51;11.70;99.90
5621;DHT22;2832;50.864;12.186;2022-11-15T06:35:20;11.70;99.90
5621;DHT22;2832;50.864;12.186;2022-11-15T06:37:49;11.70;99.90
5621;DHT22;2832;50.864;12.186;2022-11-15T06:40:17;11.70;99.90
5621;DHT22;2832;50.864;12.186;2022-11-15T06:42:45;11.70;99.90
5621;DHT22;2832;50.864;12.186;2022-11-15T06:45:13;11.70;99.90
5621;DHT22;2832;50.864;12.186;2022-11-15T06:47:53;11.70;99.90
5621;DHT22;2832;50.864;12.186;2022-11-15T06:50:22;11.70;99.90
5621;DHT22;2832;50.864;12.186;2022-11-15T06:52:49;11.60;99.90
5621;DHT22;2832;50.864;12.186;2022-11-15T06:55:17;11.60;99.90
5621;DHT22;2832;50.864;12.186;2022-11-15T06:57:49;11.60;99.90
5621;DHT22;2832;50.864;12.186;2022-11-15T07:00:19;11.60;99.90
5621;DHT22;2832;50.864;12.186;2022-11-15T07:02:47;11.60;99.90
5621;DHT22;2832;50.864;12.186;2022-11-15T07:05:16;11.60;99.90
5621;DHT22;2832;50.864;12.186;2022-11-15T07:07:52;11.60;99.90
5621;DHT22;2832;50.864;12.186;2022-11-15T07:10:21;11.70;99.90
5621;DHT22;2832;50.864;12.186;2022-11-15T07:12:51;11.60;99.90
5621;DHT22;2832;50.864;12.186;2022-11-15T07:15:20;11.60;99.90
5621;DHT22;2832;50.864;12.186;2022-11-15T07:17:48;11.70;99.90
5621;DHT22;2832;50.864;12.186;2022-11-15T07:20:17;11.60;99.90
5621;DHT22;2832;50.864;12.186;2022-11-15T07:22:45;11.60;99.90
5621;DHT22;2832;50.864;12.186;2022-11-15T07:25:14;11.60;99.90
5621;DHT22;2832;50.864;12.186;2022-11-15T07:27:42;11.60;99.90
5621;DHT22;2832;50.864;12.186;2022-11-15T07:30:11;11.60;99.90
5621;DHT22;2832;50.864;12.186;2022-11-15T07:32:40;11.60;99.90
5621;DHT22;2832;50.864;12.186;2022-11-15T07:35:08;11.50;99.90
5621;DHT22;2832;50.864;12.186;2022-11-15T07:37:38;11.50;99.90
5621;DHT22;2832;50.864;12.186;2022-11-15T07:40:08;11.50;99.90
5621;DHT22;2832;50.864;12.186;2022-11-15T07:42:37;11.50;99.90
5621;DHT22;2832;50.864;12.186;2022-11-15T07:45:20;11.50;99.90
5621;DHT22;2832;50.864;12.186;2022-11-15T07:47:49;11.60;99.90
5621;DHT22;2832;50.864;12.186;2022-11-15T07:50:18;11.50;99.90
5621;DHT22;2832;50.864;12.186;2022-11-15T07:52:46;11.50;99.90
5621;DHT22;2832;50.864;12.186;2022-11-15T07:55:14;11.50;99.90
5621;DHT22;2832;50.864;12.186;2022-11-15T07:57:43;11.50;99.90
5621;DHT22;2832;50.864;12.186;2022-11-15T08:00:13;11.50;99.90
5621;DHT22;2832;50.864;12.186;2022-11-15T08:02:42;11.50;99.90
5621;DHT22;2832;50.864;12.186;2022-11-15T08:05:10;11.50;99.90
5621;DHT22;2832;50.864;12.186;2022-11-15T08:07:40;11.50;99.90
5621;DHT22;2832;50.864;12.186;2022-11-15T08:10:08;11.50;99.90
5621;DHT22;2832;50.864;12.186;2022-11-15T08:12:37;11.50;99.90
5621;DHT22;2832;50.864;12.186;2022-11-15T08:15:07;11.50;99.90
5621;DHT22;2832;50.864;12.186;2022-11-15T08:17:35;11.50;99.90
5621;DHT22;2832;50.864;12.186;2022-11-15T08:20:04;11.50;99.90
5621;DHT22;2832;50.864;12.186;2022-11-15T08:22:33;11.50;99.90
5621;DHT22;2832;50.864;12.186;2022-11-15T08:25:01;11.50;99.90
5621;DHT22;2832;50.864;12.186;2022-11-15T08:27:30;11.40;99.90
5621;DHT22;2832;50.864;12.186;2022-11-15T08:30:01;11.30;99.90
5621;DHT22;2832;50.864;12.186;2022-11-15T08:32:31;11.40;99.90
5621;DHT22;2832;50.864;12.186;2022-11-15T08:35:00;11.40;99.90
5621;DHT22;2832;50.864;12.186;2022-11-15T08:37:52;11.40;99.90
5621;DHT22;2832;50.864;12.186;2022-11-15T08:40:20;11.40;99.90
5621;DHT22;2832;50.864;12.186;2022-11-15T08:42:48;11.50;99.90
5621;DHT22;2832;50.864;12.186;2022-11-15T08:45:18;11.50;99.90
5621;DHT22;2832;50.864;12.186;2022-11-15T08:47:47;11.50;99.90
5621;DHT22;2832;50.864;12.186;2022-11-15T08:50:15;11.50;99.90
5621;DHT22;2832;50.864;12.186;2022-11-15T08:52:44;11.40;99.90
5621;DHT22;2832;50.864;12.186;2022-11-15T08:55:12;11.40;99.90
5621;DHT22;2832;50.864;12.186;2022-11-15T08:57:39;11.40;99.90
5621;DHT22;2832;50.864;12.186;2022-11-15T09:00:09;11.40;99.90
5621;DHT22;2832;50.864;12.186;2022-11-15T09:02:39;11.50;99.90
5621;DHT22;2832;50.864;12.186;2022-11-15T09:05:09;11.50;99.90
5621;DHT22;2832;50.864;12.186;2022-11-15T09:07:36;11.50;99.90
5621;DHT22;2832;50.864;12.186;2022-11-15T09:10:05;11.50;99.90
5621;DHT22;2832;50.864;12.186;2022-11-15T09:12:34;11.50;99.90
5621;DHT22;2832;50.864;12.186;2022-11-15T09:15:03;11.50;99.90
5621;DHT22;2832;50.864;12.186;2022-11-15T09:17:31;11.50;99.90
5621;DHT22;2832;50.864;12.186;2022-11-15T09:19:59;11.50;99.90
5621;DHT22;2832;50.864;12.186;2022-11-15T09:22:29;11.50;99.90
5621;DHT22;2832;50.864;12.186;2022-11-15T09:24:56;11.50;99.90
5621;DHT22;2832;50.864;12.186;2022-11-15T09:27:27;11.50;99.90
5621;DHT22;2832;50.864;12.186;2022-11-15T09:29:56;11.40;99.90
5621;DHT22;2832;50.864;12.186;2022-11-15T09:32:28;11.40;99.90
5621;DHT22;2832;50.864;12.186;2022-11-15T09:34:56;11.50;99.90
5621;DHT22;2832;50.864;12.186;2022-11-15T09:37:24;11.50;99.90
5621;DHT22;2832;50.864;12.186;2022-11-15T09:39:54;11.60;99.90
5621;DHT22;2832;50.864;12.186;2022-11-15T09:42:35;11.50;99.90
5621;DHT22;2832;50.864;12.186;2022-11-15T09:45:17;11.50;99.90
5621;DHT22;2832;50.864;12.186;2022-11-15T09:48:14;11.50;99.90
5621;DHT22;2832;50.864;12.186;2022-11-15T09:50:49;11.60;99.90
5621;DHT22;2832;50.864;12.186;2022-11-15T09:53:24;11.40;99.90
5621;DHT22;2832;50.864;12.186;2022-11-15T09:55:59;11.20;99.90
5621;DHT22;2832;50.864;12.186;2022-11-15T09:58:35;11.30;99.90
5621;DHT22;2832;50.864;12.186;2022-11-15T10:01:11;11.30;99.90
5621;DHT22;2832;50.864;12.186;2022-11-15T10:03:42;11.30;99.90
5621;DHT22;2832;50.864;12.186;2022-11-15T10:06:18;11.30;99.90
5621;DHT22;2832;50.864;12.186;2022-11-15T10:08:57;11.40;99.90
5621;DHT22;2832;50.864;12.186;2022-11-15T10:11:29;11.50;99.90
5621;DHT22;2832;50.864;12.186;2022-11-15T10:14:08;11.40;99.90
5621;DHT22;2832;50.864;12.186;2022-11-15T10:17:12;11.50;99.90
5621;DHT22;2832;50.864;12.186;2022-11-15T10:19:52;11.40;99.90
5621;DHT22;2832;50.864;12.186;2022-11-15T10:22:27;11.50;99.90
5621;DHT22;2832;50.864;12.186;2022-11-15T10:25:12;11.50;99.90
5621;DHT22;2832;50.864;12.186;2022-11-15T10:27:45;11.40;99.90
5621;DHT22;2832;50.864;12.186;2022-11-15T10:30:16;11.50;99.90
5621;DHT22;2832;50.864;12.186;2022-11-15T10:32:46;11.50;99.90
5621;DHT22;2832;50.864;12.186;2022-11-15T10:35:21;11.50;99.90
5621;DHT22;2832;50.864;12.186;2022-11-15T10:38:06;11.50;99.90
5621;DHT22;2832;50.864;12.186;2022-11-15T10:40:35;11.50;99.90
5621;DHT22;2832;50.864;12.186;2022-11-15T10:43:15;11.50;99.90
5621;DHT22;2832;50.864;12.186;2022-11-15T10:45:47;11.60;99.90
5621;DHT22;2832;50.864;12.186;2022-11-15T10:48:23;11.50;99.90
5621;DHT22;2832;50.864;12.186;2022-11-15T10:50:53;11.50;99.90
5621;DHT22;2832;50.864;12.186;2022-11-15T10:53:33;11.50;99.90
5621;DHT22;2832;50.864;12.186;2022-11-15T10:56:06;11.60;99.90
5621;DHT22;2832;50.864;12.186;2022-11-15T10:58:38;11.50;99.90
5621;DHT22;2832;50.864;12.186;2022-11-15T11:01:26;11.50;99.90
5621;DHT22;2832;50.864;12.186;2022-11-15T11:04:00;11.60;99.90
5621;DHT22;2832;50.864;12.186;2022-11-15T11:06:29;11.70;99.90
5621;DHT22;2832;50.864;12.186;2022-11-15T11:09:00;11.70;99.90
5621;DHT22;2832;50.864;12.186;2022-11-15T11:11:44;11.70;99.90
5621;DHT22;2832;50.864;12.186;2022-11-15T11:14:20;11.80;99.90
5621;DHT22;2832;50.864;12.186;2022-11-15T11:16:52;11.80;99.90
5621;DHT22;2832;50.864;12.186;2022-11-15T11:19:38;11.80;99.90
5621;DHT22;2832;50.864;12.186;2022-11-15T11:22:16;11.80;99.90
5621;DHT22;2832;50.864;12.186;2022-11-15T11:25:12;11.70;99.90
5621;DHT22;2832;50.864;12.186;2022-11-15T11:28:01;11.80;99.90
5621;DHT22;2832;50.864;12.186;2022-11-15T11:30:46;11.90;99.90
5621;DHT22;2832;50.864;12.186;2022-11-15T11:33:19;11.90;99.90
5621;DHT22;2832;50.864;12.186;2022-11-15T11:36:05;11.90;99.90
5621;DHT22;2832;50.864;12.186;2022-11-15T11:38:44;11.90;99.90
5621;DHT22;2832;50.864;12.186;2022-11-15T11:41:36;11.90;99.90
5621;DHT22;2832;50.864;12.186;2022-11-15T11:44:18;11.90;99.90
5621;DHT22;2832;50.864;12.186;2022-11-15T11:46:56;12.00;99.90
5621;DHT22;2832;50.864;12.186;2022-11-15T11:49:34;11.90;99.90
5621;DHT22;2832;50.864;12.186;2022-11-15T11:52:07;12.00;99.90
5621;DHT22;2832;50.864;12.186;2022-11-15T11:54:42;12.10;99.90
5621;DHT22;2832;50.864;12.186;2022-11-15T11:57:17;12.20;99.90
5621;DHT22;2832;50.864;12.186;2022-11-15T11:59:55;12.30;99.90
5621;DHT22;2832;50.864;12.186;2022-11-15T12:02:29;12.30;99.90
5621;DHT22;2832;50.864;12.186;2022-11-15T12:05:08;12.40;99.90
5621;DHT22;2832;50.864;12.186;2022-11-15T12:07:39;12.40;99.90
5621;DHT22;2832;50.864;12.186;2022-11-15T12:10:19;12.50;99.90
5621;DHT22;2832;50.864;12.186;2022-11-15T12:12:54;12.50;99.90
5621;DHT22;2832;50.864;12.186;2022-11-15T12:15:25;12.50;99.90
5621;DHT22;2832;50.864;12.186;2022-11-15T12:18:07;12.60;99.90
5621;DHT22;2832;50.864;12.186;2022-11-15T12:20:42;12.70;99.90
5621;DHT22;2832;50.864;12.186;2022-11-15T12:23:20;12.70;99.90
5621;DHT22;2832;50.864;12.186;2022-11-15T12:25:56;12.70;99.90
5621;DHT22;2832;50.864;12.186;2022-11-15T12:28:35;12.60;99.90
5621;DHT22;2832;50.864;12.186;2022-11-15T12:31:11;12.60;99.90
5621;DHT22;2832;50.864;12.186;2022-11-15T12:33:44;12.70;99.90
5621;DHT22;2832;50.864;12.186;2022-11-15T12:36:36;12.70;99.90
5621;DHT22;2832;50.864;12.186;2022-11-15T12:39:06;12.70;99.90
5621;DHT22;2832;50.864;12.186;2022-11-15T12:41:36;12.70;99.90
5621;DHT22;2832;50.864;12.186;2022-11-15T12:44:10;12.80;99.90
5621;DHT22;2832;50.864;12.186;2022-11-15T12:47:01;12.80;99.90
5621;DHT22;2832;50.864;12.186;2022-11-15T12:49:45;12.90;99.90
5621;DHT22;2832;50.864;12.186;2022-11-15T12:52:14;13.00;99.90
5621;DHT22;2832;50.864;12.186;2022-11-15T12:55:01;13.00;99.90
5621;DHT22;2832;50.864;12.186;2022-11-15T12:57:33;13.00;99.90
5621;DHT22;2832;50.864;12.186;2022-11-15T13:03:20;13.00;99.90
5621;DHT22;2832;50.864;12.186;2022-11-15T13:06:05;13.10;99.90
5621;DHT22;2832;50.864;12.186;2022-11-15T13:08:45;13.10;99.90
5621;DHT22;2832;50.864;12.186;2022-11-15T13:14:46;13.10;99.90
5621;DHT22;2832;50.864;12.186;2022-11-15T13:17:36;13.20;99.90
5621;DHT22;2832;50.864;12.186;2022-11-15T13:20:22;13.30;99.90
5621;DHT22;2832;50.864;12.186;2022-11-15T13:23:00;13.30;99.90
5621;DHT22;2832;50.864;12.186;2022-11-15T13:26:08;13.40;99.90
5621;DHT22;2832;50.864;12.186;2022-11-15T13:28:41;13.30;99.90
5621;DHT22;2832;50.864;12.186;2022-11-15T13:31:28;13.40;99.90
5621;DHT22;2832;50.864;12.186;2022-11-15T13:33:59;13.40;99.90
5621;DHT22;2832;50.864;12.186;2022-11-15T13:36:30;13.40;99.90
5621;DHT22;2832;50.864;12.186;2022-11-15T13:39:05;13.40;99.90
5621;DHT22;2832;50.864;12.186;2022-11-15T13:41:34;13.40;99.90
5621;DHT22;2832;50.864;12.186;2022-11-15T13:44:03;13.50;99.90
5621;DHT22;2832;50.864;12.186;2022-11-15T13:46:32;13.40;99.90
5621;DHT22;2832;50.864;12.186;2022-11-15T13:49:02;13.50;99.90
5621;DHT22;2832;50.864;12.186;2022-11-15T13:51:37;13.50;99.90
5621;DHT22;2832;50.864;12.186;2022-11-15T13:54:17;13.50;99.90
5621;DHT22;2832;50.864;12.186;2022-11-15T13:56:49;13.50;99.90
5621;DHT22;2832;50.864;12.186;2022-11-15T13:59:24;13.60;99.90
5621;DHT22;2832;50.864;12.186;2022-11-15T14:01:53;13.60;99.90
5621;DHT22;2832;50.864;12.186;2022-11-15T14:04:23;13.70;99.90
5621;DHT22;2832;50.864;12.186;2022-11-15T14:06:54;13.70;99.90
5621;DHT22;2832;50.864;12.186;2022-11-15T14:09:45;13.80;99.90
5621;DHT22;2832;50.864;12.186;2022-11-15T14:12:32;13.80;99.90
5621;DHT22;2832;50.864;12.186;2022-11-15T14:15:18;13.80;99.90
5621;DHT22;2832;50.864;12.186;2022-11-15T14:17:45;13.80;99.90
5621;DHT22;2832;50.864;12.186;2022-11-15T14:20:26;13.80;99.90
5621;DHT22;2832;50.864;12.186;2022-11-15T14:22:55;13.80;99.90
5621;DHT22;2832;50.864;12.186;2022-11-15T14:25:24;13.80;99.90
5621;DHT22;2832;50.864;12.186;2022-11-15T14:28:15;13.70;99.90
5621;DHT22;2832;50.864;12.186;2022-11-15T14:30:46;13.80;99.90
5621;DHT22;2832;50.864;12.186;2022-11-15T14:33:27;13.90;99.90
5621;DHT22;2832;50.864;12.186;2022-11-15T14:35:57;13.90;99.90
5621;DHT22;2832;50.864;12.186;2022-11-15T14:38:26;13.90;99.90
5621;DHT22;2832;50.864;12.186;2022-11-15T14:40:56;13.90;99.90
5621;DHT22;2832;50.864;12.186;2022-11-15T14:43:24;13.90;99.90
5621;DHT22;2832;50.864;12.186;2022-11-15T14:45:53;14.00;99.90
5621;DHT22;2832;50.864;12.186;2022-11-15T14:48:21;14.00;99.90
5621;DHT22;2832;50.864;12.186;2022-11-15T14:50:50;14.00;99.90
5621;DHT22;2832;50.864;12.186;2022-11-15T14:53:18;14.10;99.90
5621;DHT22;2832;50.864;12.186;2022-11-15T14:55:47;14.00;99.90
5621;DHT22;2832;50.864;12.186;2022-11-15T14:58:16;14.00;99.90
5621;DHT22;2832;50.864;12.186;2022-11-15T15:00:44;14.00;99.90
5621;DHT22;2832;50.864;12.186;2022-11-15T15:03:12;14.10;99.90
5621;DHT22;2832;50.864;12.186;2022-11-15T15:05:41;14.10;99.90
5621;DHT22;2832;50.864;12.186;2022-11-15T15:08:10;14.00;99.90
5621;DHT22;2832;50.864;12.186;2022-11-15T15:10:39;14.00;99.90
5621;DHT22;2832;50.864;12.186;2022-11-15T15:13:17;14.10;99.90
5621;DHT22;2832;50.864;12.186;2022-11-15T15:15:46;14.00;99.90
5621;DHT22;2832;50.864;12.186;2022-11-15T15:18:15;14.00;99.90
5621;DHT22;2832;50.864;12.186;2022-11-15T15:20:44;14.00;99.90
5621;DHT22;2832;50.864;12.186;2022-11-15T15:23:16;14.10;99.90
5621;DHT22;2832;50.864;12.186;2022-11-15T15:25:45;14.10;99.90
5621;DHT22;2832;50.864;12.186;2022-11-15T15:28:18;14.00;99.90
5621;DHT22;2832;50.864;12.186;2022-11-15T15:30:46;14.00;99.90
5621;DHT22;2832;50.864;12.186;2022-11-15T15:33:15;14.10;99.90
5621;DHT22;2832;50.864;12.186;2022-11-15T15:35:45;14.10;99.90
5621;DHT22;2832;50.864;12.186;2022-11-15T15:38:13;14.20;99.90
5621;DHT22;2832;50.864;12.186;2022-11-15T15:40:41;14.20;99.90
5621;DHT22;2832;50.864;12.186;2022-11-15T15:43:09;14.20;99.90
5621;DHT22;2832;50.864;12.186;2022-11-15T15:45:40;14.20;99.90
5621;DHT22;2832;50.864;12.186;2022-11-15T15:48:11;14.20;99.90
5621;DHT22;2832;50.864;12.186;2022-11-15T15:50:40;14.20;99.90
5621;DHT22;2832;50.864;12.186;2022-11-15T15:53:10;14.20;99.90
5621;DHT22;2832;50.864;12.186;2022-11-15T15:55:38;14.20;99.90
5621;DHT22;2832;50.864;12.186;2022-11-15T15:58:06;14.20;99.90
5621;DHT22;2832;50.864;12.186;2022-11-15T16:00:34;14.20;99.90
5621;DHT22;2832;50.864;12.186;2022-11-15T16:03:03;14.20;99.90
5621;DHT22;2832;50.864;12.186;2022-11-15T16:05:31;14.20;99.90
5621;DHT22;2832;50.864;12.186;2022-11-15T16:07:58;14.20;99.90
5621;DHT22;2832;50.864;12.186;2022-11-15T16:10:27;14.20;99.90
5621;DHT22;2832;50.864;12.186;2022-11-15T16:12:56;14.20;99.90
5621;DHT22;2832;50.864;12.186;2022-11-15T16:15:26;14.20;99.90
5621;DHT22;2832;50.864;12.186;2022-11-15T16:17:58;14.30;99.90
5621;DHT22;2832;50.864;12.186;2022-11-15T16:20:32;14.30;99.90
5621;DHT22;2832;50.864;12.186;2022-11-15T16:23:01;14.30;99.90
5621;DHT22;2832;50.864;12.186;2022-11-15T16:25:29;14.30;99.90
5621;DHT22;2832;50.864;12.186;2022-11-15T16:27:57;14.30;99.90
5621;DHT22;2832;50.864;12.186;2022-11-15T16:30:27;14.30;99.90